createdAt,value
2019-06-20T00:02:32.798Z,23.65
2019-06-20T00:05:07.959Z,23.65
2019-06-20T00:07:41.269Z,23.64
2019-06-20T00:10:14.338Z,23.65
2019-06-20T00:12:59.848Z,23.65
2019-06-20T00:15:22.374Z,23.65
2019-06-20T00:17:55.625Z,23.71
2019-06-20T00:20:28.696Z,23.75
2019-06-20T00:23:01.874Z,23.76
2019-06-20T00:25:35.075Z,23.75
2019-06-20T00:28:08.412Z,23.77
2019-06-20T00:30:42.029Z,23.75
2019-06-20T00:33:15.368Z,23.76
2019-06-20T00:35:48.660Z,23.73
2019-06-20T00:38:22.128Z,23.73
2019-06-20T00:40:55.367Z,23.76
2019-06-20T00:43:28.639Z,23.78
2019-06-20T00:46:01.738Z,23.73
2019-06-20T00:48:34.960Z,23.61
2019-06-20T00:51:08.204Z,23.57
2019-06-20T00:53:41.553Z,23.55
2019-06-20T00:56:14.827Z,23.51
2019-06-20T00:58:48.288Z,23.34
2019-06-20T01:01:21.461Z,23.22
2019-06-20T01:03:54.853Z,23.11
2019-06-20T01:06:28.225Z,23.13
2019-06-20T01:09:01.406Z,23.17
2019-06-20T01:11:36.238Z,23.20
2019-06-20T01:14:09.631Z,23.12
2019-06-20T01:16:42.774Z,23.07
2019-06-20T01:19:16.207Z,23.05
2019-06-20T01:21:49.361Z,23.01
2019-06-20T01:24:23.408Z,22.97
2019-06-20T01:26:56.471Z,22.93
2019-06-20T01:29:29.753Z,22.90
2019-06-20T01:32:04.035Z,22.88
2019-06-20T01:34:37.397Z,22.85
2019-06-20T01:37:10.832Z,22.83
2019-06-20T01:39:44.285Z,22.76
2019-06-20T01:42:17.396Z,22.79
2019-06-20T01:45:19.328Z,22.81
2019-06-20T01:47:52.665Z,22.76
2019-06-20T01:50:27.141Z,22.56
2019-06-20T01:53:00.357Z,22.37
2019-06-20T01:55:33.624Z,22.31
2019-06-20T01:58:06.836Z,22.32
2019-06-20T02:00:48.690Z,22.30
2019-06-20T02:03:22.034Z,22.33
2019-06-20T02:05:57.233Z,22.25
2019-06-20T02:08:30.378Z,22.16
2019-06-20T02:11:03.806Z,22.08
2019-06-20T02:13:37.048Z,21.97
2019-06-20T02:16:10.347Z,21.90
2019-06-20T02:18:43.559Z,21.97
2019-06-20T02:21:17.693Z,22.07
2019-06-20T02:23:50.839Z,22.21
2019-06-20T02:26:24.187Z,22.35
2019-06-20T02:28:57.486Z,22.39
2019-06-20T02:31:30.689Z,22.23
2019-06-20T02:34:04.068Z,22.20
2019-06-20T02:36:37.331Z,22.21
2019-06-20T02:39:10.625Z,22.21
2019-06-20T02:41:44.145Z,22.10
2019-06-20T02:44:29.169Z,22.06
2019-06-20T02:46:52.045Z,22.14
2019-06-20T02:49:25.249Z,22.23
2019-06-20T02:51:58.456Z,22.44
2019-06-20T02:54:31.596Z,22.56
2019-06-20T02:57:04.882Z,22.70
2019-06-20T02:59:38.020Z,22.83
2019-06-20T03:02:11.393Z,22.97
2019-06-20T03:04:45.737Z,23.04
2019-06-20T03:07:21.290Z,23.15
2019-06-20T03:09:54.595Z,23.30
2019-06-20T03:12:27.967Z,23.35
2019-06-20T03:15:01.258Z,23.41
2019-06-20T03:17:35.559Z,23.51
2019-06-20T03:20:10.938Z,23.66
2019-06-20T03:22:44.137Z,23.76
2019-06-20T03:25:18.423Z,23.83
2019-06-20T03:27:51.696Z,23.95
2019-06-20T03:30:24.910Z,23.98
2019-06-20T03:32:58.122Z,23.99
2019-06-20T03:35:31.498Z,24.00
2019-06-20T03:38:04.621Z,24.05
2019-06-20T03:40:37.821Z,24.05
2019-06-20T03:43:11.117Z,24.07
2019-06-20T03:45:44.252Z,24.14
2019-06-20T03:48:17.512Z,24.20
2019-06-20T03:50:50.561Z,24.23
2019-06-20T03:53:23.897Z,24.28
2019-06-20T03:55:58.139Z,24.28
2019-06-20T03:58:31.414Z,24.38
2019-06-20T04:01:04.635Z,24.52
2019-06-20T04:03:38.077Z,24.53
2019-06-20T04:06:11.141Z,24.66
2019-06-20T04:08:44.501Z,24.80
2019-06-20T04:11:18.380Z,24.90
2019-06-20T04:13:51.856Z,24.99
2019-06-20T04:16:24.953Z,25.08
2019-06-20T04:18:58.229Z,25.18
2019-06-20T04:21:31.386Z,25.25
2019-06-20T04:24:04.806Z,25.34
2019-06-20T04:26:38.020Z,25.43
2019-06-20T04:29:11.372Z,25.49
2019-06-20T04:31:44.716Z,25.61
2019-06-20T04:34:18.155Z,25.72
2019-06-20T04:36:51.426Z,25.83
2019-06-20T04:39:24.724Z,25.94
2019-06-20T04:41:58.127Z,26.01
2019-06-20T04:44:32.385Z,26.11
2019-06-20T04:47:07.977Z,26.26
2019-06-20T04:49:41.622Z,26.34
2019-06-20T04:52:14.934Z,26.38
2019-06-20T04:54:48.218Z,26.52
2019-06-20T04:57:21.471Z,26.62
2019-06-20T04:59:56.449Z,26.66
2019-06-20T05:02:35.525Z,26.81
2019-06-20T05:05:08.827Z,26.84
2019-06-20T05:07:42.125Z,26.93
2019-06-20T05:10:18.589Z,27.03
2019-06-20T05:12:51.924Z,27.11
2019-06-20T05:15:25.093Z,27.13
2019-06-20T05:17:58.478Z,27.14
2019-06-20T05:20:31.740Z,27.32
2019-06-20T05:23:05.099Z,27.39
2019-06-20T05:25:38.249Z,27.58
2019-06-20T05:28:11.595Z,27.72
2019-06-20T05:30:44.901Z,27.88
2019-06-20T05:33:18.282Z,27.96
2019-06-20T05:35:51.665Z,28.06
2019-06-20T05:38:25.095Z,28.11
2019-06-20T05:40:58.257Z,28.22
2019-06-20T05:43:31.673Z,28.26
2019-06-20T05:46:09.919Z,28.42
2019-06-20T05:48:39.940Z,28.58
2019-06-20T05:51:13.153Z,28.68
2019-06-20T05:53:47.282Z,28.70
2019-06-20T05:56:21.560Z,28.83
2019-06-20T05:58:55.711Z,28.83
2019-06-20T06:01:29.374Z,28.88
2019-06-20T06:04:02.849Z,28.93
2019-06-20T06:06:36.157Z,28.96
2019-06-20T06:09:09.806Z,29.00
2019-06-20T06:11:43.173Z,29.13
2019-06-20T06:14:16.581Z,29.12
2019-06-20T06:16:49.904Z,29.27
2019-06-20T06:19:23.161Z,29.30
2019-06-20T06:21:56.431Z,29.39
2019-06-20T06:27:02.480Z,29.64
2019-06-20T06:29:35.987Z,29.71
2019-06-20T06:32:09.214Z,29.76
2019-06-20T06:34:42.589Z,29.76
2019-06-20T06:37:15.802Z,29.79
2019-06-20T06:39:49.322Z,29.88
2019-06-20T06:42:22.593Z,29.85
2019-06-20T06:44:56.197Z,29.89
2019-06-20T06:47:29.593Z,29.96
2019-06-20T06:50:02.961Z,30.01
2019-06-20T06:52:36.251Z,30.08
2019-06-20T06:55:10.375Z,30.19
2019-06-20T06:57:44.900Z,30.31
2019-06-20T07:00:18.324Z,30.40
2019-06-20T07:02:51.583Z,30.38
2019-06-20T07:05:25.036Z,30.51
2019-06-20T07:07:58.223Z,30.50
2019-06-20T07:10:31.787Z,30.50
2019-06-20T07:13:05.186Z,30.52
2019-06-20T07:15:38.786Z,30.54
2019-06-20T07:18:12.159Z,30.48
2019-06-20T07:20:45.465Z,30.59
2019-06-20T07:23:19.151Z,30.67
2019-06-20T07:25:52.275Z,30.66
2019-06-20T07:28:25.586Z,30.69
2019-06-20T07:30:58.855Z,30.67
2019-06-20T07:33:32.676Z,30.71
2019-06-20T07:36:06.986Z,30.75
2019-06-20T07:38:40.201Z,30.87
2019-06-20T07:41:13.480Z,30.96
2019-06-20T07:43:46.685Z,31.00
2019-06-20T07:46:19.925Z,30.98
2019-06-20T07:48:53.151Z,31.02
2019-06-20T07:51:26.558Z,31.18
2019-06-20T07:53:59.874Z,31.27
2019-06-20T07:56:34.739Z,31.32
2019-06-20T07:59:07.950Z,31.32
2019-06-20T08:01:42.125Z,31.24
2019-06-20T08:04:15.324Z,31.27
2019-06-20T08:06:48.523Z,31.32
2019-06-20T08:09:22.243Z,31.41
2019-06-20T08:11:55.698Z,31.57
2019-06-20T08:14:32.448Z,31.63
2019-06-20T08:17:05.808Z,31.64
2019-06-20T08:19:38.939Z,31.65
2019-06-20T08:22:12.254Z,31.66
2019-06-20T08:24:47.147Z,31.52
2019-06-20T08:27:22.032Z,31.49
2019-06-20T08:29:56.572Z,31.55
2019-06-20T08:32:30.133Z,31.68
2019-06-20T08:35:04.490Z,31.79
2019-06-20T08:37:37.828Z,31.74
2019-06-20T08:40:11.151Z,31.74
2019-06-20T08:42:44.291Z,31.92
2019-06-20T08:45:17.445Z,32.06
2019-06-20T08:47:50.775Z,32.02
2019-06-20T08:50:24.136Z,31.92
2019-06-20T08:52:58.030Z,31.89
2019-06-20T08:55:31.960Z,31.84
2019-06-20T08:58:05.792Z,31.86
2019-06-20T09:00:39.098Z,31.98
2019-06-20T09:03:12.558Z,32.07
2019-06-20T09:05:45.659Z,31.96
2019-06-20T09:08:19.008Z,31.92
2019-06-20T09:10:55.697Z,31.91
2019-06-20T09:13:29.370Z,31.87
2019-06-20T09:16:03.133Z,31.78
2019-06-20T09:18:36.509Z,31.72
2019-06-20T09:21:10.707Z,31.74
2019-06-20T09:23:45.180Z,31.93
2019-06-20T09:26:18.296Z,32.17
2019-06-20T09:28:52.680Z,32.30
2019-06-20T09:31:26.252Z,32.31
2019-06-20T09:34:02.420Z,32.20
2019-06-20T09:36:34.630Z,32.01
2019-06-20T09:39:08.488Z,31.88
2019-06-20T09:41:41.700Z,31.93
2019-06-20T09:44:15.108Z,32.15
2019-06-20T09:46:50.647Z,32.30
2019-06-20T09:49:23.312Z,32.24
2019-06-20T09:51:56.614Z,32.21
2019-06-20T09:54:30.140Z,32.38
2019-06-20T09:57:03.287Z,32.47
2019-06-20T09:59:38.951Z,32.48
2019-06-20T10:02:12.170Z,32.44
2019-06-20T10:04:47.873Z,32.47
2019-06-20T10:07:21.430Z,32.58
2019-06-20T10:09:54.619Z,32.71
2019-06-20T10:12:28.727Z,32.57
2019-06-20T10:15:02.041Z,32.42
2019-06-20T10:17:35.101Z,32.20
2019-06-20T10:20:08.193Z,31.98
2019-06-20T10:22:41.330Z,31.96
2019-06-20T10:25:14.473Z,31.98
2019-06-20T10:27:48.334Z,32.08
2019-06-20T10:30:23.716Z,32.15
2019-06-20T10:32:57.740Z,32.41
2019-06-20T10:35:31.378Z,32.60
2019-06-20T10:38:04.468Z,32.72
2019-06-20T10:40:37.712Z,32.70
2019-06-20T10:43:10.847Z,32.60
2019-06-20T10:45:44.711Z,32.55
2019-06-20T10:48:18.856Z,32.42
2019-06-20T10:50:52.165Z,32.38
2019-06-20T10:53:27.157Z,32.42
2019-06-20T10:56:00.532Z,32.47
2019-06-20T10:58:33.847Z,32.59
2019-06-20T11:01:07.231Z,32.61
2019-06-20T11:03:41.858Z,32.60
2019-06-20T11:06:15.246Z,32.71
2019-06-20T11:08:49.408Z,32.89
2019-06-20T11:11:22.781Z,32.75
2019-06-20T11:13:56.052Z,32.56
2019-06-20T11:16:29.476Z,32.47
2019-06-20T11:19:02.688Z,32.44
2019-06-20T11:21:37.907Z,32.47
2019-06-20T11:24:14.034Z,32.58
2019-06-20T11:26:47.950Z,32.66
2019-06-20T11:29:21.239Z,32.82
2019-06-20T11:31:54.750Z,32.96
2019-06-20T11:34:27.867Z,33.10
2019-06-20T11:37:01.032Z,33.11
2019-06-20T11:39:35.632Z,33.11
2019-06-20T11:42:08.976Z,33.21
2019-06-20T11:44:43.091Z,33.19
2019-06-20T11:47:16.620Z,33.19
2019-06-20T11:49:49.694Z,33.29
2019-06-20T11:52:23.138Z,33.44
2019-06-20T11:54:56.236Z,33.42
2019-06-20T11:57:29.573Z,33.43
2019-06-20T12:00:03.036Z,33.34
2019-06-20T12:02:36.182Z,33.24
2019-06-20T12:05:12.474Z,33.14
2019-06-20T12:07:47.710Z,33.12
2019-06-20T12:10:21.974Z,33.10
2019-06-20T12:12:55.352Z,33.09
2019-06-20T12:15:28.956Z,33.12
2019-06-20T12:18:03.296Z,33.22
2019-06-20T12:20:36.268Z,33.25
2019-06-20T12:23:11.719Z,33.28
2019-06-20T12:25:44.866Z,33.26
2019-06-20T12:28:18.229Z,33.25
2019-06-20T12:30:51.459Z,33.22
2019-06-20T12:33:25.722Z,33.20
2019-06-20T12:35:59.006Z,33.23
2019-06-20T12:38:32.255Z,33.23
2019-06-20T12:41:05.378Z,33.21
2019-06-20T12:43:39.076Z,33.25
2019-06-20T12:46:13.489Z,33.19
2019-06-20T12:48:46.999Z,33.18
2019-06-20T12:51:20.099Z,33.19
2019-06-20T12:53:53.603Z,33.16
2019-06-20T12:56:26.902Z,33.16
2019-06-20T12:59:00.291Z,33.18
2019-06-20T13:01:38.881Z,33.19
2019-06-20T13:04:08.233Z,33.26
2019-06-20T13:06:42.258Z,33.33
2019-06-20T13:09:15.484Z,33.41
2019-06-20T13:11:49.272Z,33.38
2019-06-20T13:14:22.698Z,33.39
2019-06-20T13:16:55.983Z,33.44
2019-06-20T13:19:29.366Z,33.44
2019-06-20T13:22:02.524Z,33.46
2019-06-20T13:24:37.977Z,33.25
2019-06-20T13:27:12.511Z,33.02
2019-06-20T13:29:47.219Z,32.78
2019-06-20T13:32:20.709Z,32.64
2019-06-20T13:34:53.992Z,32.55
2019-06-20T13:37:27.288Z,32.58
2019-06-20T13:40:00.558Z,32.66
2019-06-20T13:42:33.665Z,32.71
2019-06-20T13:45:13.219Z,32.76
2019-06-20T13:47:45.707Z,32.76
2019-06-20T13:50:21.107Z,32.88
2019-06-20T13:52:54.455Z,32.80
2019-06-20T13:55:27.734Z,33.03
2019-06-20T13:58:01.029Z,33.13
2019-06-20T14:00:34.418Z,33.07
2019-06-20T14:03:09.181Z,32.80
2019-06-20T14:05:42.812Z,32.61
2019-06-20T14:08:16.077Z,32.39
2019-06-20T14:10:49.813Z,32.16
2019-06-20T14:13:23.164Z,32.12
2019-06-20T14:15:56.442Z,32.09
2019-06-20T14:18:32.582Z,32.19
2019-06-20T14:21:06.538Z,32.32
2019-06-20T14:23:41.025Z,32.44
2019-06-20T14:26:15.278Z,32.54
2019-06-20T14:28:48.512Z,32.65
2019-06-20T14:31:21.922Z,32.74
2019-06-20T14:33:55.601Z,32.81
2019-06-20T14:36:28.982Z,32.91
2019-06-20T14:39:02.214Z,32.98
2019-06-20T14:41:37.155Z,32.95
2019-06-20T14:44:11.246Z,32.85
2019-06-20T14:46:44.576Z,32.84
2019-06-20T14:49:17.885Z,32.75
2019-06-20T14:51:52.452Z,32.60
2019-06-20T14:54:25.565Z,32.49
2019-06-20T14:56:58.954Z,32.34
2019-06-20T14:59:35.335Z,32.35
2019-06-20T15:02:07.447Z,32.31
2019-06-20T15:04:40.884Z,32.20
2019-06-20T15:07:15.173Z,32.22
2019-06-20T15:09:49.657Z,32.22
2019-06-20T15:12:23.563Z,32.19
2019-06-20T15:14:56.767Z,32.13
2019-06-20T15:17:31.137Z,32.06
2019-06-20T15:20:06.640Z,32.03
2019-06-20T15:22:40.150Z,32.01
2019-06-20T15:25:14.989Z,32.01
2019-06-20T15:27:50.270Z,31.95
2019-06-20T15:30:23.253Z,31.93
2019-06-20T15:33:07.490Z,31.96
2019-06-20T15:35:31.654Z,31.89
2019-06-20T15:38:04.889Z,31.85
2019-06-20T15:40:38.021Z,31.83
2019-06-20T15:43:11.362Z,31.81
2019-06-20T15:45:44.721Z,31.74
2019-06-20T15:48:22.979Z,31.69
2019-06-20T15:50:57.142Z,31.61
2019-06-20T15:53:30.447Z,31.60
2019-06-20T15:56:03.728Z,31.53
2019-06-20T15:58:36.922Z,31.53
2019-06-20T16:01:10.221Z,31.48
2019-06-20T16:03:43.454Z,31.40
2019-06-20T16:06:16.739Z,31.35
2019-06-20T16:08:49.998Z,31.33
2019-06-20T16:11:23.168Z,31.30
2019-06-20T16:13:56.522Z,31.24
2019-06-20T16:16:29.741Z,31.16
2019-06-20T16:19:03.094Z,31.11
2019-06-20T16:21:36.279Z,31.02
2019-06-20T16:24:12.591Z,30.98
2019-06-20T16:26:44.555Z,30.96
2019-06-20T16:29:19.693Z,30.94
2019-06-20T16:31:52.839Z,30.86
2019-06-20T16:34:26.087Z,30.80
2019-06-20T16:37:09.967Z,30.71
2019-06-20T16:39:36.430Z,30.70
2019-06-20T16:42:09.804Z,30.64
2019-06-20T16:44:43.047Z,30.59
2019-06-20T16:47:16.423Z,30.52
2019-06-20T16:49:49.691Z,30.46
2019-06-20T16:52:22.893Z,30.40
2019-06-20T16:54:59.257Z,30.38
2019-06-20T16:57:32.469Z,30.30
2019-06-20T17:00:10.384Z,30.24
2019-06-20T17:02:43.559Z,30.18
2019-06-20T17:05:17.020Z,30.07
2019-06-20T17:07:50.897Z,30.00
2019-06-20T17:10:24.684Z,29.95
2019-06-20T17:12:57.878Z,29.86
2019-06-20T17:15:32.139Z,29.75
2019-06-20T17:18:05.365Z,29.73
2019-06-20T17:20:39.936Z,29.69
2019-06-20T17:23:14.871Z,29.67
2019-06-20T17:25:51.736Z,29.56
2019-06-20T17:28:25.030Z,29.46
2019-06-20T17:30:59.439Z,29.37
2019-06-20T17:33:32.670Z,29.34
2019-06-20T17:36:17.666Z,29.30
2019-06-20T17:38:40.898Z,29.22
2019-06-20T17:41:14.169Z,29.13
2019-06-20T17:43:47.300Z,29.04
2019-06-20T17:46:20.602Z,28.94
2019-06-20T17:48:53.784Z,28.81
2019-06-20T17:51:27.189Z,28.70
2019-06-20T17:54:01.915Z,28.56
2019-06-20T17:56:35.462Z,28.45
2019-06-20T17:59:08.584Z,28.33
2019-06-20T18:01:42.007Z,28.19
2019-06-20T18:04:15.273Z,28.09
2019-06-20T18:06:51.044Z,27.99
2019-06-20T18:09:24.161Z,27.90
2019-06-20T18:11:57.682Z,27.79
2019-06-20T18:14:33.972Z,27.72
2019-06-20T18:17:06.453Z,27.63
2019-06-20T18:19:39.623Z,27.53
2019-06-20T18:22:12.989Z,27.36
2019-06-20T18:24:46.397Z,27.27
2019-06-20T18:27:20.139Z,27.10
2019-06-20T18:29:55.029Z,26.99
2019-06-20T18:32:28.541Z,26.85
2019-06-20T18:35:02.698Z,26.73
2019-06-20T18:37:37.147Z,26.55
2019-06-20T18:40:11.413Z,26.31
2019-06-20T18:42:44.962Z,26.03
2019-06-20T18:45:18.346Z,25.80
2019-06-20T18:47:51.630Z,25.59
2019-06-20T18:50:25.014Z,25.49
2019-06-20T18:53:00.073Z,25.33
2019-06-20T18:55:33.281Z,25.18
2019-06-20T18:58:09.764Z,25.01
2019-06-20T19:00:43.052Z,24.85
2019-06-20T19:03:16.280Z,24.72
2019-06-20T19:05:49.606Z,24.73
2019-06-20T19:08:22.808Z,24.59
2019-06-20T19:10:56.174Z,24.41
2019-06-20T19:13:29.687Z,24.33
2019-06-20T19:16:04.611Z,24.24
2019-06-20T19:18:37.868Z,24.04
2019-06-20T19:21:11.162Z,23.87
2019-06-20T19:23:44.657Z,23.69
2019-06-20T19:26:18.040Z,23.59
2019-06-20T19:28:53.331Z,23.52
2019-06-20T19:31:27.947Z,23.39
2019-06-20T19:34:01.435Z,23.30
2019-06-20T19:36:34.678Z,23.15
2019-06-20T19:39:08.694Z,23.08
2019-06-20T19:41:41.834Z,23.05
2019-06-20T19:44:15.255Z,22.92
2019-06-20T19:46:48.712Z,22.80
2019-06-20T19:49:23.652Z,22.76
2019-06-20T19:51:56.940Z,22.72
2019-06-20T19:54:30.193Z,22.66
2019-06-20T19:57:03.496Z,22.57
2019-06-20T19:59:37.100Z,22.52
2019-06-20T20:02:11.993Z,22.43
2019-06-20T20:04:45.369Z,22.31
2019-06-20T20:07:18.754Z,22.23
2019-06-20T20:09:52.130Z,22.18
2019-06-20T20:12:25.322Z,22.13
2019-06-20T20:14:58.603Z,22.03
2019-06-20T20:17:31.804Z,21.99
2019-06-20T20:20:09.109Z,21.96
2019-06-20T20:22:44.871Z,21.89
2019-06-20T20:25:21.268Z,21.79
2019-06-20T20:27:54.517Z,21.70
2019-06-20T20:30:28.810Z,21.61
2019-06-20T20:33:02.214Z,21.53
2019-06-20T20:35:36.135Z,21.46
2019-06-20T20:38:09.239Z,21.45
2019-06-20T20:40:42.674Z,21.42
2019-06-20T20:43:16.853Z,21.41
2019-06-20T20:45:50.095Z,21.38
2019-06-20T20:48:23.197Z,21.28
2019-06-20T20:50:57.533Z,21.20
2019-06-20T20:53:31.880Z,21.20
2019-06-20T20:56:05.140Z,21.19
2019-06-20T20:58:38.387Z,21.20
2019-06-20T21:01:16.554Z,21.21
2019-06-20T21:03:49.538Z,21.15
2019-06-20T21:06:22.714Z,21.12
2019-06-20T21:08:55.947Z,21.08
2019-06-20T21:11:29.177Z,21.00
2019-06-20T21:14:02.153Z,20.90
2019-06-20T21:16:35.982Z,20.80
2019-06-20T21:19:09.276Z,20.65
2019-06-20T21:21:42.416Z,20.57
2019-06-20T21:24:15.616Z,20.56
2019-06-20T21:26:50.198Z,20.58
2019-06-20T21:29:23.418Z,20.54
2019-06-20T21:31:56.930Z,20.49
2019-06-20T21:34:31.241Z,20.36
2019-06-20T21:37:04.593Z,20.32
2019-06-20T21:39:38.823Z,20.38
2019-06-20T21:42:12.474Z,20.42
2019-06-20T21:44:45.748Z,20.43
2019-06-20T21:47:18.993Z,20.31
2019-06-20T21:49:52.197Z,20.20
2019-06-20T21:52:25.297Z,20.14
2019-06-20T21:54:58.506Z,20.10
2019-06-20T21:57:31.807Z,20.05
2019-06-20T22:00:27.895Z,19.99
2019-06-20T22:03:02.805Z,19.83
2019-06-20T22:05:35.966Z,19.83
2019-06-20T22:08:09.338Z,19.76
2019-06-20T22:10:42.709Z,19.74
2019-06-20T22:13:16.101Z,19.66
2019-06-20T22:15:49.361Z,19.57
2019-06-20T22:18:22.645Z,19.59
2019-06-20T22:20:55.944Z,19.73
2019-06-20T22:23:29.371Z,19.80
2019-06-20T22:26:02.659Z,19.86
2019-06-20T22:28:35.982Z,19.78
2019-06-20T22:31:09.272Z,19.76
2019-06-20T22:33:42.889Z,19.60
2019-06-20T22:39:54.316Z,19.36
2019-06-20T22:42:27.366Z,19.30
2019-06-20T22:45:00.531Z,19.35
2019-06-20T22:47:33.844Z,19.36
2019-06-20T22:50:07.949Z,19.42
2019-06-20T22:52:42.294Z,19.34
2019-06-20T22:55:15.566Z,19.28
2019-06-20T22:57:48.677Z,19.28
2019-06-20T23:00:23.043Z,19.35
2019-06-20T23:02:56.291Z,19.43
2019-06-20T23:05:30.808Z,19.30
2019-06-20T23:08:04.259Z,19.18
2019-06-20T23:10:37.610Z,19.19
2019-06-20T23:13:11.781Z,19.16
2019-06-20T23:15:45.205Z,19.11
2019-06-20T23:18:18.346Z,19.09
2019-06-20T23:21:04.012Z,19.16
2019-06-20T23:23:26.240Z,19.26
2019-06-20T23:26:01.222Z,19.35
2019-06-20T23:28:34.417Z,19.40
2019-06-20T23:31:07.797Z,19.43
2019-06-20T23:33:40.982Z,19.54
2019-06-20T23:36:17.460Z,19.62
2019-06-20T23:38:50.417Z,19.65
2019-06-20T23:41:23.702Z,19.72
2019-06-20T23:43:56.950Z,19.66
2019-06-20T23:46:30.134Z,19.46
2019-06-20T23:49:03.177Z,19.29
2019-06-20T23:51:43.746Z,19.16
2019-06-20T23:54:17.028Z,19.09
2019-06-20T23:56:50.214Z,19.04
2019-06-20T23:59:23.404Z,19.00
